Time;durP1;ratioP1;P1;durP2;ratioP2;P2;SDS_P1;SDS_P2;PMS_P1;PMS_P2;Temp;Humidity;BMP_temperature;BMP_pressure;BME280_temperature;BME280_humidity;BME280_pressure;Samples;Min_cycle;Max_cycle;Signal;HPM_P1;HPM_P2
2021/09/10 00:02:12;;;;;;;6.53;4.60;;;;;;;;;;5040961;28;20180;-75
2021/09/10 00:04:57;;;;;;;5.88;5.03;;;;;;;;;;5043985;28;20052;-76
2021/09/10 00:07:41;;;;;;;5.60;4.90;;;;;;;;;;5043877;28;20114;-77
2021/09/10 00:10:28;;;;;;;6.07;4.85;;;;;;;;;;5029714;28;20078;-76
2021/09/10 00:13:12;;;;;;;8.23;5.75;;;;;;;;;;5041965;28;20039;-75
2021/09/10 00:15:57;;;;;;;6.70;5.13;;;;;;;;;;5030092;28;20143;-74
2021/09/10 00:18:42;;;;;;;6.45;5.25;;;;;;;;;;5045252;28;20048;-74
2021/09/10 00:21:27;;;;;;;7.78;5.25;;;;;;;;;;5044498;28;20094;-74
2021/09/10 00:24:11;;;;;;;6.65;5.05;;;;;;;;;;5012803;28;20060;-76
2021/09/10 00:26:56;;;;;;;6.07;4.68;;;;;;;;;;5014165;28;20032;-77
2021/09/10 00:29:41;;;;;;;8.85;5.55;;;;;;;;;;5040238;28;20411;-74
2021/09/10 00:32:27;;;;;;;6.07;4.80;;;;;;;;;;5042652;28;20047;-74
2021/09/10 00:35:11;;;;;;;7.50;5.10;;;;;;;;;;5037702;28;20127;-76
2021/09/10 00:37:56;;;;;;;6.78;5.22;;;;;;;;;;5044201;28;20036;-74
2021/09/10 00:40:41;;;;;;;6.68;4.75;;;;;;;;;;5029562;28;20865;-74
2021/09/10 00:43:25;;;;;;;7.10;5.25;;;;;;;;;;5043355;28;20106;-77
2021/09/10 00:46:10;;;;;;;7.35;4.80;;;;;;;;;;5043419;28;20409;-74
2021/09/10 00:48:54;;;;;;;8.40;5.05;;;;;;;;;;5029336;28;20056;-74
2021/09/10 00:51:40;;;;;;;6.97;5.00;;;;;;;;;;5042834;28;20513;-77
2021/09/10 00:54:25;;;;;;;7.63;5.25;;;;;;;;;;5041872;28;20102;-76
2021/09/10 00:57:10;;;;;;;7.18;5.07;;;;;;;;;;5013115;28;20119;-74
2021/09/10 00:59:54;;;;;;;6.55;4.80;;;;;;;;;;5025338;28;20823;-74
2021/09/10 01:02:39;;;;;;;5.68;4.30;;;;;;;;;;5028965;28;20091;-74
2021/09/10 01:05:24;;;;;;;7.15;5.00;;;;;;;;;;5042402;28;20178;-75
2021/09/10 01:08:08;;;;;;;6.30;4.97;;;;;;;;;;5043026;28;20039;-75
2021/09/10 01:10:53;;;;;;;6.18;4.78;;;;;;;;;;5029826;28;20047;-75
2021/09/10 01:13:37;;;;;;;5.63;4.72;;;;;;;;;;5043560;28;20083;-76
2021/09/10 01:16:22;;;;;;;7.50;4.88;;;;;;;;;;5043567;28;20086;-77
2021/09/10 01:19:07;;;;;;;6.35;4.95;;;;;;;;;;5029464;28;20048;-77
2021/09/10 01:21:52;;;;;;;6.38;5.03;;;;;;;;;;5044202;28;20468;-77
2021/09/10 01:24:40;;;;;;;5.53;4.50;;;;;;;;;;5042801;28;20134;-77
2021/09/10 01:27:25;;;;;;;6.63;5.05;;;;;;;;;;5043381;28;20052;-77
2021/09/10 01:30:10;;;;;;;6.30;5.10;;;;;;;;;;5027425;28;20524;-77
2021/09/10 01:32:55;;;;;;;10.63;5.32;;;;;;;;;;5044417;28;20043;-77
2021/09/10 01:35:40;;;;;;;6.50;4.95;;;;;;;;;;5042567;28;20410;-75
2021/09/10 01:38:25;;;;;;;6.60;5.00;;;;;;;;;;5020962;28;20151;-75
2021/09/10 01:41:10;;;;;;;6.22;5.00;;;;;;;;;;5036858;28;20032;-75
2021/09/10 01:43:54;;;;;;;6.65;5.15;;;;;;;;;;5043897;28;20087;-75
2021/09/10 01:46:40;;;;;;;6.15;4.72;;;;;;;;;;5045331;28;20045;-75
2021/09/10 01:49:24;;;;;;;6.85;5.05;;;;;;;;;;5034347;28;20250;-74
2021/09/10 01:52:09;;;;;;;7.10;4.80;;;;;;;;;;5025191;28;20079;-75
2021/09/10 01:54:53;;;;;;;7.75;5.22;;;;;;;;;;5032022;28;20044;-75
2021/09/10 01:57:38;;;;;;;8.35;5.75;;;;;;;;;;5024872;28;20588;-75
2021/09/10 02:00:23;;;;;;;6.28;5.05;;;;;;;;;;5028937;28;20032;-74
2021/09/10 02:03:07;;;;;;;7.68;5.60;;;;;;;;;;5045592;28;20090;-76
2021/09/10 02:05:52;;;;;;;6.85;5.15;;;;;;;;;;5046852;28;20063;-76
2021/09/10 02:08:36;;;;;;;7.43;5.07;;;;;;;;;;5042515;28;20600;-76
2021/09/10 02:11:21;;;;;;;7.18;5.00;;;;;;;;;;5048070;28;20405;-76
2021/09/10 02:14:05;;;;;;;6.97;5.53;;;;;;;;;;5031128;28;20039;-73
2021/09/10 02:16:50;;;;;;;6.30;5.40;;;;;;;;;;5049396;28;20116;-74
2021/09/10 02:19:34;;;;;;;6.97;4.70;;;;;;;;;;5048401;28;20044;-74
2021/09/10 02:22:19;;;;;;;6.07;4.72;;;;;;;;;;5048495;28;20039;-74
2021/09/10 02:25:04;;;;;;;7.80;5.70;;;;;;;;;;5038543;28;20052;-77
2021/09/10 02:27:49;;;;;;;6.93;5.25;;;;;;;;;;5048263;28;20795;-76
2021/09/10 02:30:34;;;;;;;6.50;4.55;;;;;;;;;;5047835;28;20068;-77
2021/09/10 02:33:18;;;;;;;8.80;5.55;;;;;;;;;;5046914;28;20082;-76
2021/09/10 02:36:03;;;;;;;6.85;5.63;;;;;;;;;;5047778;28;20496;-76
2021/09/10 02:38:48;;;;;;;7.32;5.35;;;;;;;;;;5048776;28;20040;-76
2021/09/10 02:41:33;;;;;;;6.60;5.03;;;;;;;;;;5033791;28;20036;-76
2021/09/10 02:44:18;;;;;;;6.60;4.93;;;;;;;;;;5047334;28;20835;-76
2021/09/10 02:47:02;;;;;;;7.28;5.68;;;;;;;;;;5027640;28;20137;-76
2021/09/10 02:49:47;;;;;;;6.93;5.43;;;;;;;;;;5046901;28;20082;-76
2021/09/10 02:52:33;;;;;;;6.18;4.85;;;;;;;;;;5046735;28;20556;-76
2021/09/10 02:55:18;;;;;;;8.07;5.70;;;;;;;;;;5044055;28;20071;-76
2021/09/10 02:58:03;;;;;;;7.47;5.40;;;;;;;;;;5046873;28;20039;-76
2021/09/10 03:00:47;;;;;;;6.57;5.13;;;;;;;;;;5048036;28;20044;-76
2021/09/10 03:03:32;;;;;;;6.95;5.30;;;;;;;;;;5026343;28;20578;-76
2021/09/10 03:06:16;;;;;;;8.38;5.60;;;;;;;;;;5028199;28;20088;-75
2021/09/10 03:09:01;;;;;;;8.38;5.75;;;;;;;;;;5046925;28;20426;-75
2021/09/10 03:11:46;;;;;;;6.93;5.10;;;;;;;;;;5046021;28;20055;-75
2021/09/10 03:14:33;;;;;;;6.40;5.15;;;;;;;;;;5035514;28;20497;-75
2021/09/10 03:17:18;;;;;;;7.18;5.35;;;;;;;;;;5044545;28;20744;-75
2021/09/10 03:20:02;;;;;;;6.85;5.10;;;;;;;;;;5047818;28;20169;-76
2021/09/10 03:22:47;;;;;;;7.80;4.88;;;;;;;;;;5046809;28;20093;-75
2021/09/10 03:25:32;;;;;;;7.57;5.75;;;;;;;;;;5030846;28;20048;-77
2021/09/10 03:28:16;;;;;;;7.90;5.43;;;;;;;;;;5022502;28;20044;-76
2021/09/10 03:31:01;;;;;;;6.13;5.30;;;;;;;;;;5030951;28;20071;-76
2021/09/10 03:33:45;;;;;;;8.55;5.60;;;;;;;;;;5045348;28;20047;-74
2021/09/10 03:36:30;;;;;;;7.32;5.15;;;;;;;;;;5042801;28;20044;-77
2021/09/10 03:39:15;;;;;;;9.50;5.43;;;;;;;;;;5026233;28;20060;-76
2021/09/10 03:41:59;;;;;;;6.15;4.85;;;;;;;;;;5044363;28;20059;-76
2021/09/10 03:44:44;;;;;;;7.32;5.55;;;;;;;;;;5045419;28;20529;-76
2021/09/10 03:47:28;;;;;;;6.05;5.03;;;;;;;;;;5045490;28;20456;-76
2021/09/10 03:50:13;;;;;;;6.20;5.00;;;;;;;;;;5046718;28;20094;-76
2021/09/10 03:52:57;;;;;;;6.03;4.90;;;;;;;;;;5032809;28;20036;-76
2021/09/10 03:55:42;;;;;;;5.93;4.80;;;;;;;;;;5026339;28;20094;-76
2021/09/10 03:58:26;;;;;;;7.10;5.13;;;;;;;;;;5029834;28;20155;-76
2021/09/10 04:01:11;;;;;;;6.65;5.15;;;;;;;;;;5046489;28;20095;-76
2021/09/10 04:03:56;;;;;;;6.53;5.00;;;;;;;;;;5045934;28;20099;-76
2021/09/10 04:06:40;;;;;;;5.63;4.70;;;;;;;;;;5047445;28;20120;-77
2021/09/10 04:09:25;;;;;;;5.80;4.85;;;;;;;;;;5045662;28;20106;-76
2021/09/10 04:12:09;;;;;;;5.93;4.65;;;;;;;;;;5030021;28;20103;-76
2021/09/10 04:14:55;;;;;;;5.15;4.50;;;;;;;;;;5045825;28;20391;-77
2021/09/10 04:17:39;;;;;;;7.43;5.25;;;;;;;;;;5042130;28;20180;-75
2021/09/10 04:20:24;;;;;;;6.07;4.72;;;;;;;;;;5026606;28;20448;-75
2021/09/10 04:23:08;;;;;;;5.45;4.68;;;;;;;;;;5044991;28;20075;-76
2021/09/10 04:25:53;;;;;;;5.50;4.60;;;;;;;;;;5042534;28;20044;-75
2021/09/10 04:28:37;;;;;;;5.75;4.78;;;;;;;;;;5042699;28;20090;-75
2021/09/10 04:31:22;;;;;;;5.43;4.45;;;;;;;;;;5045234;28;20102;-76
2021/09/10 04:34:06;;;;;;;6.32;4.55;;;;;;;;;;5045087;28;20036;-75
2021/09/10 04:36:51;;;;;;;5.43;4.55;;;;;;;;;;5046046;28;20089;-75
2021/09/10 04:39:35;;;;;;;5.40;4.80;;;;;;;;;;5041561;28;20048;-75
2021/09/10 04:42:20;;;;;;;5.57;4.70;;;;;;;;;;5023654;28;20151;-75
2021/09/10 04:45:05;;;;;;;5.38;4.38;;;;;;;;;;5045506;28;20051;-75
2021/09/10 04:47:49;;;;;;;5.90;4.50;;;;;;;;;;5044571;28;20040;-77
2021/09/10 04:50:34;;;;;;;6.47;4.72;;;;;;;;;;5029771;28;20167;-76
2021/09/10 04:53:18;;;;;;;5.82;4.60;;;;;;;;;;5039883;28;20060;-76
2021/09/10 04:56:03;;;;;;;5.28;4.35;;;;;;;;;;5041241;28;20043;-76
2021/09/10 04:58:48;;;;;;;5.53;4.30;;;;;;;;;;5044568;28;20047;-76
2021/09/10 05:01:32;;;;;;;5.35;4.38;;;;;;;;;;5043889;28;20394;-75
2021/09/10 05:04:22;;;;;;;5.72;4.50;;;;;;;;;;5021212;28;20482;-76
2021/09/10 05:07:06;;;;;;;4.80;4.15;;;;;;;;;;5043516;28;20043;-75
2021/09/10 05:09:51;;;;;;;6.18;4.20;;;;;;;;;;5043278;28;20055;-75
2021/09/10 05:12:35;;;;;;;5.57;4.20;;;;;;;;;;5023491;28;20036;-75
2021/09/10 05:15:20;;;;;;;5.53;4.38;;;;;;;;;;5041992;28;20083;-75
2021/09/10 05:18:05;;;;;;;5.15;4.07;;;;;;;;;;5043824;28;20095;-75
2021/09/10 05:20:49;;;;;;;5.47;4.10;;;;;;;;;;5034383;28;20043;-75
2021/09/10 05:23:34;;;;;;;6.03;4.45;;;;;;;;;;5038986;28;20842;-74
2021/09/10 05:26:18;;;;;;;4.45;3.78;;;;;;;;;;5024673;28;20048;-75
2021/09/10 05:29:03;;;;;;;5.25;4.47;;;;;;;;;;5041110;28;20552;-75
2021/09/10 05:31:47;;;;;;;4.53;3.72;;;;;;;;;;5042468;28;20043;-75
2021/09/10 05:34:32;;;;;;;4.65;4.03;;;;;;;;;;5042474;28;20048;-76
2021/09/10 05:37:16;;;;;;;5.22;4.30;;;;;;;;;;5029152;28;20090;-76
2021/09/10 05:40:01;;;;;;;5.47;4.20;;;;;;;;;;5043559;28;20113;-76
2021/09/10 05:42:47;;;;;;;4.30;3.70;;;;;;;;;;5042361;28;20123;-76
2021/09/10 05:45:32;;;;;;;5.05;3.85;;;;;;;;;;5043599;28;20083;-76
2021/09/10 05:48:19;;;;;;;4.78;3.80;;;;;;;;;;5047879;28;20044;-75
2021/09/10 05:51:04;;;;;;;4.93;4.03;;;;;;;;;;5046824;28;20048;-75
2021/09/10 05:53:48;;;;;;;6.20;4.18;;;;;;;;;;5047809;28;20146;-74
2021/09/10 05:56:33;;;;;;;4.93;3.90;;;;;;;;;;5032240;28;20094;-76
2021/09/10 05:59:18;;;;;;;4.63;3.90;;;;;;;;;;5026935;28;20044;-75
2021/09/10 06:02:02;;;;;;;4.90;4.20;;;;;;;;;;5041937;28;20052;-75
2021/09/10 06:04:47;;;;;;;4.85;3.70;;;;;;;;;;5046249;28;20492;-76
2021/09/10 06:07:32;;;;;;;5.28;3.78;;;;;;;;;;5046650;28;20086;-76
2021/09/10 06:10:18;;;;;;;4.75;3.42;;;;;;;;;;5046131;28;20087;-76
2021/09/10 06:13:02;;;;;;;5.38;3.80;;;;;;;;;;5028232;28;20035;-76
2021/09/10 06:15:47;;;;;;;4.38;3.70;;;;;;;;;;5045954;28;20449;-75
2021/09/10 06:18:32;;;;;;;5.15;3.53;;;;;;;;;;5046680;28;20040;-74
2021/09/10 06:21:17;;;;;;;4.90;3.85;;;;;;;;;;5046267;28;20193;-75
2021/09/10 06:24:01;;;;;;;4.05;3.58;;;;;;;;;;5046161;28;20051;-75
2021/09/10 06:26:46;;;;;;;5.22;3.78;;;;;;;;;;5046383;28;20101;-76
2021/09/10 06:29:30;;;;;;;4.80;3.83;;;;;;;;;;5031121;28;20101;-76
2021/09/10 06:32:15;;;;;;;4.68;3.78;;;;;;;;;;5044534;28;20040;-75
2021/09/10 06:34:59;;;;;;;4.45;3.42;;;;;;;;;;5044286;28;20604;-76
2021/09/10 06:37:44;;;;;;;4.38;3.63;;;;;;;;;;5031349;28;20048;-75
2021/09/10 06:40:29;;;;;;;4.90;3.63;;;;;;;;;;5043983;28;20094;-76
2021/09/10 06:43:14;;;;;;;5.38;3.80;;;;;;;;;;5044444;28;20117;-75
2021/09/10 06:45:59;;;;;;;5.07;3.70;;;;;;;;;;5047035;28;20060;-75
2021/09/10 06:48:43;;;;;;;4.03;3.38;;;;;;;;;;5034591;28;20571;-75
2021/09/10 06:51:28;;;;;;;4.90;3.40;;;;;;;;;;5046282;28;20059;-76
2021/09/10 06:54:12;;;;;;;5.13;3.92;;;;;;;;;;5045539;28;20028;-75
2021/09/10 06:56:57;;;;;;;6.60;3.92;;;;;;;;;;5045483;28;20638;-76
2021/09/10 06:59:42;;;;;;;6.13;3.97;;;;;;;;;;5030931;28;20082;-75
2021/09/10 07:02:27;;;;;;;5.40;3.70;;;;;;;;;;5025382;28;20457;-75
2021/09/10 07:05:11;;;;;;;5.57;3.88;;;;;;;;;;5040397;28;20122;-76
2021/09/10 07:07:56;;;;;;;4.78;3.50;;;;;;;;;;5045599;28;20036;-76
2021/09/10 07:10:41;;;;;;;5.88;4.18;;;;;;;;;;5030455;28;20044;-76
2021/09/10 07:13:26;;;;;;;5.63;3.75;;;;;;;;;;5042837;28;20040;-76
2021/09/10 07:16:10;;;;;;;5.25;3.95;;;;;;;;;;5025254;28;20041;-76
2021/09/10 07:18:55;;;;;;;4.68;3.60;;;;;;;;;;5044303;28;20056;-75
2021/09/10 07:21:40;;;;;;;5.05;3.72;;;;;;;;;;5043683;28;20069;-76
2021/09/10 07:24:25;;;;;;;6.45;3.60;;;;;;;;;;5023718;28;20049;-76
2021/09/10 07:27:09;;;;;;;5.63;4.47;;;;;;;;;;5041775;28;20047;-75
2021/09/10 07:29:54;;;;;;;5.28;3.90;;;;;;;;;;5030573;28;20040;-75
2021/09/10 07:32:39;;;;;;;5.85;4.20;;;;;;;;;;5044405;28;20052;-75
2021/09/10 07:35:23;;;;;;;5.60;4.07;;;;;;;;;;5042655;28;20086;-76
2021/09/10 07:38:08;;;;;;;5.80;4.30;;;;;;;;;;5040756;28;20461;-75
2021/09/10 07:40:52;;;;;;;5.80;3.90;;;;;;;;;;5043828;28;20505;-75
2021/09/10 07:43:37;;;;;;;6.53;3.92;;;;;;;;;;5044286;28;20043;-75
2021/09/10 07:46:21;;;;;;;6.82;4.00;;;;;;;;;;5030238;28;20067;-75
2021/09/10 07:49:06;;;;;;;5.38;3.75;;;;;;;;;;5010601;28;20075;-75
2021/09/10 07:51:51;;;;;;;6.53;3.53;;;;;;;;;;5030423;28;20087;-75
2021/09/10 07:54:36;;;;;;;8.20;4.45;;;;;;;;;;5053099;28;20075;-76
2021/09/10 07:57:21;;;;;;;5.75;4.00;;;;;;;;;;5043868;28;20134;-76
2021/09/10 08:00:06;;;;;;;5.38;4.00;;;;;;;;;;5044709;28;20136;-75
2021/09/10 08:02:51;;;;;;;5.10;3.60;;;;;;;;;;5030678;28;20048;-76
2021/09/10 08:05:37;;;;;;;5.93;4.40;;;;;;;;;;5036349;28;20142;-76
2021/09/10 08:08:21;;;;;;;5.80;4.40;;;;;;;;;;5025567;28;20041;-76
2021/09/10 08:11:06;;;;;;;5.13;4.03;;;;;;;;;;5054936;28;20067;-76
2021/09/10 08:13:51;;;;;;;5.57;4.22;;;;;;;;;;5026379;28;20060;-76
2021/09/10 08:16:35;;;;;;;5.82;4.30;;;;;;;;;;5042188;28;20601;-76
2021/09/10 08:19:19;;;;;;;6.20;4.80;;;;;;;;;;5043849;28;20064;-76
2021/09/10 08:22:04;;;;;;;5.25;3.90;;;;;;;;;;5043377;28;20148;-76
2021/09/10 08:24:48;;;;;;;5.75;4.15;;;;;;;;;;5042869;28;20162;-76
2021/09/10 08:27:33;;;;;;;5.72;4.05;;;;;;;;;;5049408;28;20048;-76
2021/09/10 08:30:18;;;;;;;5.47;4.10;;;;;;;;;;5040616;28;20040;-76
2021/09/10 08:33:03;;;;;;;7.00;4.65;;;;;;;;;;5039775;28;20048;-76
2021/09/10 08:35:47;;;;;;;6.95;4.60;;;;;;;;;;5043585;28;20090;-76
2021/09/10 08:38:32;;;;;;;5.03;3.78;;;;;;;;;;5043969;28;20126;-76
2021/09/10 08:41:16;;;;;;;5.05;4.05;;;;;;;;;;5028564;28;20044;-76
2021/09/10 08:44:02;;;;;;;5.63;4.07;;;;;;;;;;5044919;28;20129;-75
2021/09/10 08:46:47;;;;;;;5.68;4.28;;;;;;;;;;5043240;28;20040;-75
2021/09/10 08:49:33;;;;;;;5.25;3.85;;;;;;;;;;5029116;28;20587;-76
2021/09/10 08:52:18;;;;;;;5.40;4.00;;;;;;;;;;5025645;28;20044;-74
2021/09/10 08:55:02;;;;;;;4.28;3.40;;;;;;;;;;5037573;28;20398;-75
2021/09/10 08:57:47;;;;;;;5.30;4.18;;;;;;;;;;5042845;28;20039;-75
2021/09/10 09:00:33;;;;;;;6.03;4.00;;;;;;;;;;5043118;28;20090;-75
2021/09/10 09:03:17;;;;;;;4.45;3.40;;;;;;;;;;5042999;28;20409;-76
2021/09/10 09:06:02;;;;;;;5.38;3.67;;;;;;;;;;5043407;28;20048;-75
2021/09/10 09:08:47;;;;;;;5.55;3.70;;;;;;;;;;5039552;28;20036;-75
2021/09/10 09:11:31;;;;;;;5.15;4.00;;;;;;;;;;5042782;28;20098;-75
2021/09/10 09:14:16;;;;;;;5.93;4.30;;;;;;;;;;5043061;28;20468;-75
2021/09/10 09:17:16;;;;;;;6.10;3.92;;;;;;;;;;5040186;28;20485;-75
2021/09/10 09:20:20;;;;;;;5.47;4.10;;;;;;;;;;5036302;28;20094;-75
2021/09/10 09:23:09;;;;;;;5.90;4.30;;;;;;;;;;5036602;28;20040;-75
2021/09/10 09:25:53;;;;;;;6.88;4.40;;;;;;;;;;5046810;28;20521;-77
2021/09/10 09:28:38;;;;;;;6.30;4.30;;;;;;;;;;5047750;28;20452;-76
2021/09/10 09:31:22;;;;;;;5.93;4.40;;;;;;;;;;5046624;28;20086;-77
2021/09/10 09:34:07;;;;;;;5.32;4.30;;;;;;;;;;5045544;28;20083;-76
2021/09/10 09:36:53;;;;;;;6.82;4.20;;;;;;;;;;5045946;28;20096;-76
2021/09/10 09:39:57;;;;;;;6.82;4.03;;;;;;;;;;5046871;28;20190;-76
2021/09/10 09:42:41;;;;;;;8.23;4.47;;;;;;;;;;5040043;28;20031;-76
2021/09/10 09:45:26;;;;;;;6.07;4.32;;;;;;;;;;5053425;28;20056;-76
2021/09/10 09:48:12;;;;;;;6.70;4.65;;;;;;;;;;5037322;28;20036;-76
2021/09/10 09:50:57;;;;;;;6.72;4.80;;;;;;;;;;5044476;28;20091;-76
2021/09/10 09:53:41;;;;;;;6.38;4.43;;;;;;;;;;5031941;28;20034;-76
2021/09/10 09:56:26;;;;;;;6.63;4.57;;;;;;;;;;5039283;28;20067;-76
2021/09/10 09:59:12;;;;;;;7.30;4.50;;;;;;;;;;5045637;28;20043;-75
2021/09/10 10:01:57;;;;;;;7.50;5.05;;;;;;;;;;5031657;28;20036;-76
2021/09/10 10:04:41;;;;;;;7.40;5.20;;;;;;;;;;5041591;28;20039;-75
2021/09/10 10:07:30;;;;;;;5.97;4.30;;;;;;;;;;5046808;28;20086;-75
2021/09/10 10:10:17;;;;;;;7.47;4.80;;;;;;;;;;5047834;28;20059;-75
2021/09/10 10:13:05;;;;;;;6.88;4.97;;;;;;;;;;5052746;28;20057;-75
2021/09/10 10:15:49;;;;;;;5.43;4.20;;;;;;;;;;5045501;28;20413;-75
2021/09/10 10:18:42;;;;;;;6.38;4.10;;;;;;;;;;5031709;28;20036;-75
2021/09/10 10:21:53;;;;;;;6.13;4.07;;;;;;;;;;5046256;28;20071;-75
2021/09/10 10:24:38;;;;;;;5.90;4.35;;;;;;;;;;5046071;28;20055;-76
2021/09/10 10:27:38;;;;;;;6.70;4.43;;;;;;;;;;5045650;28;20043;-76
2021/09/10 10:30:26;;;;;;;6.78;4.50;;;;;;;;;;5045505;28;20090;-76
2021/09/10 10:33:24;;;;;;;6.45;4.63;;;;;;;;;;5043007;28;20655;-76
2021/09/10 10:36:28;;;;;;;5.85;4.15;;;;;;;;;;5042923;28;20114;-76
2021/09/10 10:39:13;;;;;;;5.68;4.20;;;;;;;;;;5043455;28;20836;-76
2021/09/10 10:42:01;;;;;;;6.85;4.22;;;;;;;;;;5044394;28;20043;-77
2021/09/10 10:44:46;;;;;;;6.00;4.15;;;;;;;;;;5044688;28;20182;-77
2021/09/10 10:47:34;;;;;;;6.65;4.13;;;;;;;;;;5023817;28;20035;-77
2021/09/10 10:50:34;;;;;;;6.68;4.57;;;;;;;;;;5026940;28;20040;-76
2021/09/10 10:53:19;;;;;;;6.55;4.40;;;;;;;;;;5025784;28;20054;-75
2021/09/10 10:56:24;;;;;;;6.90;4.70;;;;;;;;;;5040899;28;20615;-77
2021/09/10 10:59:15;;;;;;;8.32;5.35;;;;;;;;;;5042235;28;20178;-75
2021/09/10 11:02:32;;;;;;;6.35;4.82;;;;;;;;;;5040737;28;20570;-75
2021/09/10 11:05:20;;;;;;;9.48;4.88;;;;;;;;;;5027587;28;20102;-77
2021/09/10 11:08:05;;;;;;;6.57;4.82;;;;;;;;;;5033928;28;20094;-77
2021/09/10 11:10:52;;;;;;;6.40;4.80;;;;;;;;;;5025452;28;20044;-76
2021/09/10 11:13:43;;;;;;;6.68;4.68;;;;;;;;;;5042335;28;20108;-77
2021/09/10 11:16:28;;;;;;;6.43;5.10;;;;;;;;;;5040230;28;20044;-76
2021/09/10 11:19:12;;;;;;;7.13;4.95;;;;;;;;;;5041107;28;20729;-77
2021/09/10 11:22:00;;;;;;;6.78;5.03;;;;;;;;;;5041864;28;20090;-75
2021/09/10 11:24:47;;;;;;;8.20;5.07;;;;;;;;;;4992493;28;1453635;-77
2021/09/10 11:27:32;;;;;;;7.32;5.18;;;;;;;;;;5042637;28;20361;-76
2021/09/10 11:30:17;;;;;;;6.95;5.20;;;;;;;;;;5027844;28;20043;-77
2021/09/10 11:33:03;;;;;;;9.65;5.05;;;;;;;;;;5043579;28;20043;-76
2021/09/10 11:35:48;;;;;;;7.40;5.40;;;;;;;;;;5038728;28;20040;-77
2021/09/10 11:38:33;;;;;;;7.55;5.45;;;;;;;;;;5039862;28;20052;-76
2021/09/10 11:41:18;;;;;;;8.48;5.00;;;;;;;;;;5040929;28;20675;-77
2021/09/10 11:44:10;;;;;;;8.23;5.53;;;;;;;;;;5025916;28;20530;-75
2021/09/10 11:46:54;;;;;;;;;;;;;;;;;;5042302;28;20062;-77
2021/09/10 11:49:39;;;;;;;8.68;4.95;;;;;;;;;;5043890;28;20004;-76
2021/09/10 11:52:31;;;;;;;8.50;5.20;;;;;;;;;;5044043;28;20491;-76
2021/09/10 11:55:16;;;;;;;7.80;5.30;;;;;;;;;;5044419;28;20860;-75
2021/09/10 11:58:11;;;;;;;10.35;5.60;;;;;;;;;;5043525;28;20164;-76
2021/09/10 12:01:14;;;;;;;7.82;4.80;;;;;;;;;;5033946;28;20659;-75
2021/09/10 12:03:59;;;;;;;6.75;5.00;;;;;;;;;;5034894;28;20152;-75
2021/09/10 12:06:48;;;;;;;7.93;5.00;;;;;;;;;;5044490;28;20128;-75
2021/09/10 12:09:33;;;;;;;7.43;5.40;;;;;;;;;;5037704;28;20035;-76
2021/09/10 12:12:22;;;;;;;7.53;5.35;;;;;;;;;;5036163;28;20117;-76
2021/09/10 12:15:08;;;;;;;8.35;5.53;;;;;;;;;;5025711;28;20124;-75
2021/09/10 12:17:53;;;;;;;8.02;5.63;;;;;;;;;;5029034;28;20414;-76
2021/09/10 12:20:37;;;;;;;7.63;4.97;;;;;;;;;;5043821;28;20077;-75
2021/09/10 12:23:22;;;;;;;8.48;5.15;;;;;;;;;;5029494;28;20048;-75
2021/09/10 12:26:07;;;;;;;8.07;5.65;;;;;;;;;;5041592;28;20051;-75
2021/09/10 12:28:52;;;;;;;7.10;5.20;;;;;;;;;;5034488;28;20312;-74
2021/09/10 12:31:37;;;;;;;6.68;5.18;;;;;;;;;;5025164;28;20153;-74
2021/09/10 12:34:22;;;;;;;9.65;5.50;;;;;;;;;;5042192;28;20096;-74
2021/09/10 12:37:06;;;;;;;8.95;5.82;;;;;;;;;;5041599;28;20135;-74
2021/09/10 12:39:51;;;;;;;6.78;5.40;;;;;;;;;;5023453;28;20114;-74
2021/09/10 12:42:35;;;;;;;7.70;5.72;;;;;;;;;;5029033;28;20397;-74
2021/09/10 12:45:20;;;;;;;7.65;5.45;;;;;;;;;;5026527;28;20114;-74
2021/09/10 12:48:04;;;;;;;7.90;5.57;;;;;;;;;;5028462;28;20474;-75
2021/09/10 12:50:49;;;;;;;7.40;5.38;;;;;;;;;;5042078;28;20075;-75
2021/09/10 12:53:33;;;;;;;8.07;5.80;;;;;;;;;;5028844;28;20032;-75
2021/09/10 12:56:18;;;;;;;6.88;5.22;;;;;;;;;;5042198;28;20064;-74
2021/09/10 12:59:03;;;;;;;6.97;5.47;;;;;;;;;;5043465;28;20032;-75
2021/09/10 13:01:47;;;;;;;8.27;5.65;;;;;;;;;;5039316;28;20061;-75
2021/09/10 13:04:32;;;;;;;8.50;6.00;;;;;;;;;;5044024;28;20505;-75
2021/09/10 13:07:17;;;;;;;6.53;4.95;;;;;;;;;;5028686;28;20090;-75
2021/09/10 13:10:02;;;;;;;7.10;5.65;;;;;;;;;;5022490;28;20060;-75
2021/09/10 13:12:47;;;;;;;7.80;5.75;;;;;;;;;;5022945;28;20044;-75
2021/09/10 13:15:31;;;;;;;8.38;5.65;;;;;;;;;;5023170;28;20079;-75
2021/09/10 13:18:16;;;;;;;8.68;5.90;;;;;;;;;;5025432;28;20615;-75
2021/09/10 13:21:00;;;;;;;7.22;5.72;;;;;;;;;;5017308;28;20080;-75
2021/09/10 13:23:45;;;;;;;8.48;5.63;;;;;;;;;;5038492;28;20048;-75
2021/09/10 13:26:30;;;;;;;6.68;5.40;;;;;;;;;;5040579;28;20370;-75
2021/09/10 13:29:15;;;;;;;7.35;5.30;;;;;;;;;;5021024;28;20445;-74
2021/09/10 13:32:00;;;;;;;7.53;5.47;;;;;;;;;;5027715;28;20040;-75
2021/09/10 13:34:44;;;;;;;7.65;5.47;;;;;;;;;;5033678;28;20532;-74
2021/09/10 13:37:29;;;;;;;6.75;5.35;;;;;;;;;;5028610;28;20469;-74
2021/09/10 13:40:14;;;;;;;6.63;5.30;;;;;;;;;;5039683;28;20063;-74
2021/09/10 13:42:58;;;;;;;6.70;5.47;;;;;;;;;;5041738;28;20035;-76
2021/09/10 13:45:43;;;;;;;6.20;5.32;;;;;;;;;;5037499;28;20052;-75
2021/09/10 13:48:28;;;;;;;6.75;5.72;;;;;;;;;;5023856;28;20055;-74
2021/09/10 13:51:12;;;;;;;6.50;5.60;;;;;;;;;;5022656;28;20060;-75
2021/09/10 13:53:57;;;;;;;7.00;5.93;;;;;;;;;;5031736;28;20452;-75
2021/09/10 13:56:42;;;;;;;7.90;6.10;;;;;;;;;;5036406;28;20067;-75
2021/09/10 13:59:28;;;;;;;7.65;6.13;;;;;;;;;;5038116;28;20448;-76
2021/09/10 14:02:13;;;;;;;7.70;6.53;;;;;;;;;;5032648;28;20104;-75
2021/09/10 14:04:57;;;;;;;8.15;6.80;;;;;;;;;;5030868;28;20098;-75
2021/09/10 14:07:42;;;;;;;9.18;6.57;;;;;;;;;;5030091;28;20044;-75
2021/09/10 14:10:27;;;;;;;8.27;6.80;;;;;;;;;;5043142;28;20047;-75
2021/09/10 14:13:11;;;;;;;9.57;6.07;;;;;;;;;;5046822;28;20056;-75
2021/09/10 14:15:56;;;;;;;8.57;6.72;;;;;;;;;;5045790;28;20052;-75
2021/09/10 14:18:40;;;;;;;8.68;6.68;;;;;;;;;;5045696;28;20102;-76
2021/09/10 14:21:25;;;;;;;7.68;6.10;;;;;;;;;;5031472;28;20043;-75
2021/09/10 14:24:10;;;;;;;7.93;6.30;;;;;;;;;;5031363;28;20667;-75
2021/09/10 14:26:54;;;;;;;7.55;6.18;;;;;;;;;;5046666;28;20047;-75
2021/09/10 14:29:39;;;;;;;8.75;6.32;;;;;;;;;;5045704;28;20079;-75
2021/09/10 14:32:23;;;;;;;8.68;6.03;;;;;;;;;;5042984;28;20123;-74
2021/09/10 14:35:08;;;;;;;7.80;6.60;;;;;;;;;;5043225;28;20748;-75
2021/09/10 14:37:53;;;;;;;7.57;6.18;;;;;;;;;;5042268;28;20052;-75
2021/09/10 14:40:37;;;;;;;9.73;6.38;;;;;;;;;;5040442;28;20036;-75
2021/09/10 14:43:22;;;;;;;6.10;5.28;;;;;;;;;;5043334;28;20468;-75
2021/09/10 14:46:06;;;;;;;6.70;5.97;;;;;;;;;;5027534;28;20059;-75
2021/09/10 14:48:52;;;;;;;8.82;6.75;;;;;;;;;;5011511;28;20044;-75
2021/09/10 14:51:38;;;;;;;7.10;6.30;;;;;;;;;;5039416;28;20061;-75
2021/09/10 14:54:23;;;;;;;7.28;6.32;;;;;;;;;;5042462;28;20075;-75
2021/09/10 14:57:08;;;;;;;7.20;6.13;;;;;;;;;;5025579;28;20107;-75
2021/09/10 15:00:14;;;;;;;7.15;6.45;;;;;;;;;;5033724;28;20140;-76
2021/09/10 15:03:01;;;;;;;7.38;6.38;;;;;;;;;;5045481;28;20047;-75
2021/09/10 15:05:46;;;;;;;6.88;6.03;;;;;;;;;;5044515;28;20496;-76
2021/09/10 15:08:31;;;;;;;9.27;6.90;;;;;;;;;;5030616;28;20090;-75
2021/09/10 15:11:18;;;;;;;9.68;8.23;;;;;;;;;;5044378;28;20036;-76
2021/09/10 15:14:03;;;;;;;8.82;7.20;;;;;;;;;;5046018;28;20394;-76
2021/09/10 15:16:48;;;;;;;9.65;8.00;;;;;;;;;;5044387;28;20186;-76
2021/09/10 15:19:33;;;;;;;8.68;7.75;;;;;;;;;;5018090;28;20110;-76
2021/09/10 15:22:18;;;;;;;8.73;6.75;;;;;;;;;;5044409;28;20044;-76
2021/09/10 15:25:04;;;;;;;12.00;8.98;;;;;;;;;;5048817;28;20051;-75
2021/09/10 15:27:49;;;;;;;10.82;9.38;;;;;;;;;;5043664;28;20143;-75
2021/09/10 15:30:34;;;;;;;12.25;9.27;;;;;;;;;;5044446;28;20124;-75
2021/09/10 15:33:18;;;;;;;11.68;9.52;;;;;;;;;;5030320;28;20071;-76
2021/09/10 15:36:03;;;;;;;12.70;9.75;;;;;;;;;;5042347;28;20504;-76
2021/09/10 15:38:47;;;;;;;12.32;9.45;;;;;;;;;;5051855;28;20044;-75
2021/09/10 15:41:32;;;;;;;11.15;9.30;;;;;;;;;;5039070;28;20083;-76
2021/09/10 15:44:17;;;;;;;11.98;9.45;;;;;;;;;;5043920;28;20063;-75
2021/09/10 15:47:01;;;;;;;11.55;9.55;;;;;;;;;;5062320;28;20067;-75
2021/09/10 15:49:46;;;;;;;13.88;10.15;;;;;;;;;;5035479;28;20717;-75
2021/09/10 15:52:31;;;;;;;11.00;9.10;;;;;;;;;;5033351;28;20040;-74
2021/09/10 15:55:15;;;;;;;10.27;8.52;;;;;;;;;;5028166;28;20104;-74
2021/09/10 15:58:00;;;;;;;11.23;9.77;;;;;;;;;;5042321;28;20410;-74
2021/09/10 16:00:45;;;;;;;11.25;9.10;;;;;;;;;;5026104;28;20048;-75
2021/09/10 16:03:32;;;;;;;11.75;8.88;;;;;;;;;;5041297;28;20168;-75
2021/09/10 16:06:17;;;;;;;11.07;8.95;;;;;;;;;;5035355;28;20051;-74
2021/09/10 16:09:01;;;;;;;12.13;8.75;;;;;;;;;;5040579;28;20087;-74
2021/09/10 16:11:46;;;;;;;13.68;8.80;;;;;;;;;;5042979;28;20052;-74
2021/09/10 16:14:32;;;;;;;11.20;8.25;;;;;;;;;;5045330;28;20076;-74
2021/09/10 16:17:17;;;;;;;9.88;8.05;;;;;;;;;;5043219;28;20032;-74
2021/09/10 16:20:02;;;;;;;11.85;8.30;;;;;;;;;;5040523;28;20520;-75
2021/09/10 16:22:47;;;;;;;10.63;8.13;;;;;;;;;;5043313;28;20131;-74
2021/09/10 16:25:32;;;;;;;10.43;8.30;;;;;;;;;;5043061;28;20055;-74
2021/09/10 16:28:16;;;;;;;9.35;7.63;;;;;;;;;;5044038;28;20040;-75
2021/09/10 16:31:01;;;;;;;9.05;7.45;;;;;;;;;;5042996;28;20094;-74
2021/09/10 16:33:46;;;;;;;11.93;7.97;;;;;;;;;;5044166;28;20043;-75